createdAt,value
2023-02-04T00:00:08.227Z,56.70
2023-02-04T00:02:10.325Z,56.91
2023-02-04T00:04:14.726Z,56.96
2023-02-04T00:06:16.352Z,57.23
2023-02-04T00:08:20.545Z,57.23
2023-02-04T00:10:22.213Z,57.08
2023-02-04T00:12:23.927Z,57.27
2023-02-04T00:14:25.464Z,56.87
2023-02-04T00:16:27.075Z,57.22
2023-02-04T00:18:29.343Z,57.28
2023-02-04T00:20:31.438Z,57.15
2023-02-04T00:22:33.211Z,57.26
2023-02-04T00:24:35.893Z,57.02
2023-02-04T00:26:37.539Z,57.14
2023-02-04T00:28:39.002Z,57.42
2023-02-04T00:30:40.535Z,57.70
2023-02-04T00:32:43.920Z,57.92
2023-02-04T00:34:46.936Z,57.00
2023-02-04T00:36:51.615Z,57.15
2023-02-04T00:38:53.200Z,57.41
2023-02-04T00:40:54.849Z,57.23
2023-02-04T00:43:02.180Z,57.49
2023-02-04T00:45:03.881Z,57.47
2023-02-04T00:47:06.149Z,57.03
2023-02-04T00:49:10.556Z,57.19
2023-02-04T00:51:12.227Z,57.34
2023-02-04T00:53:13.866Z,57.17
2023-02-04T00:55:18.086Z,57.23
2023-02-04T00:57:19.833Z,57.14
2023-02-04T00:59:24.533Z,57.08
2023-02-04T01:01:26.299Z,57.29
2023-02-04T01:03:28.007Z,57.38
2023-02-04T01:05:30.612Z,57.30
2023-02-04T01:07:32.369Z,57.22
2023-02-04T01:09:34.009Z,57.05
2023-02-04T01:11:36.604Z,56.71
2023-02-04T01:13:38.606Z,57.07
2023-02-04T01:15:40.369Z,57.03
2023-02-04T01:17:42.319Z,56.84
2023-02-04T01:19:43.942Z,56.97
2023-02-04T01:21:45.469Z,56.90
2023-02-04T01:23:47.278Z,56.73
2023-02-04T01:25:49.891Z,56.71
2023-02-04T01:27:51.741Z,56.93
2023-02-04T01:29:53.432Z,56.56
2023-02-04T01:31:54.877Z,56.58
2023-02-04T01:33:56.434Z,56.59
2023-02-04T01:36:00.371Z,56.59
2023-02-04T01:38:02.136Z,56.14
2023-02-04T01:40:04.460Z,56.14
2023-02-04T01:42:06.435Z,56.17
2023-02-04T01:44:08.281Z,56.04
2023-02-04T01:46:10.609Z,55.98
2023-02-04T01:48:16.558Z,56.50
2023-02-04T01:50:18.659Z,56.35
2023-02-04T01:52:20.273Z,55.98
2023-02-04T01:54:22.206Z,55.28
2023-02-04T01:56:26.873Z,55.71
2023-02-04T01:58:35.562Z,55.63
2023-02-04T02:00:39.037Z,55.80
2023-02-04T02:02:49.021Z,55.91
2023-02-04T02:04:50.491Z,55.35
2023-02-04T02:06:55.445Z,55.78
2023-02-04T02:08:58.431Z,55.68
2023-02-04T02:11:00.058Z,55.86
2023-02-04T02:13:01.956Z,55.47
2023-02-04T02:15:05.450Z,55.46
2023-02-04T02:17:07.126Z,55.28
2023-02-04T02:19:14.930Z,55.16
2023-02-04T02:21:21.826Z,54.89
2023-02-04T02:24:01.064Z,54.67
2023-02-04T02:26:02.647Z,55.08
2023-02-04T02:28:09.204Z,55.23
2023-02-04T02:30:19.898Z,55.41
2023-02-04T02:32:24.469Z,54.92
2023-02-04T02:34:29.452Z,55.50
2023-02-04T02:36:33.552Z,55.57
2023-02-04T02:38:35.207Z,55.08
2023-02-04T02:40:37.661Z,55.29
2023-02-04T02:42:39.671Z,55.17
2023-02-04T02:44:44.469Z,55.01
2023-02-04T02:46:48.860Z,54.84
2023-02-04T02:48:50.584Z,55.49
2023-02-04T02:50:52.722Z,55.42
2023-02-04T02:52:57.009Z,55.25
2023-02-04T02:54:58.766Z,55.00
2023-02-04T02:57:00.542Z,55.00
2023-02-04T02:59:16.937Z,54.84
2023-02-04T03:01:19.377Z,55.13
2023-02-04T03:03:25.714Z,54.89
2023-02-04T03:05:34.046Z,55.02
2023-02-04T03:07:37.446Z,55.30
2023-02-04T03:09:39.115Z,54.83
2023-02-04T03:11:40.927Z,54.86
2023-02-04T03:13:43.030Z,55.34
2023-02-04T03:15:47.724Z,55.08
2023-02-04T03:17:51.512Z,55.39
2023-02-04T03:19:55.790Z,55.23
2023-02-04T03:22:00.932Z,55.02
2023-02-04T03:24:02.695Z,54.80
2023-02-04T03:26:06.494Z,55.31
2023-02-04T03:28:09.832Z,55.01
2023-02-04T03:30:11.715Z,55.02
2023-02-04T03:32:13.282Z,55.33
2023-02-04T03:34:14.914Z,55.11
2023-02-04T03:36:16.645Z,55.15
2023-02-04T03:38:19.908Z,55.41
2023-02-04T03:40:21.608Z,55.33
2023-02-04T03:42:23.186Z,55.05
2023-02-04T03:44:27.030Z,55.30
2023-02-04T03:46:28.907Z,55.42
2023-02-04T03:48:30.599Z,54.97
2023-02-04T03:50:32.545Z,55.21
2023-02-04T03:52:34.315Z,54.98
2023-02-04T03:54:38.547Z,55.11
2023-02-04T03:56:40.115Z,54.95
2023-02-04T03:58:41.628Z,54.74
2023-02-04T04:00:43.571Z,54.96
2023-02-04T04:02:45.341Z,55.11
2023-02-04T04:04:49.358Z,55.26
2023-02-04T04:06:51.049Z,55.45
2023-02-04T04:08:52.516Z,55.16
2023-02-04T04:10:54.178Z,55.14
2023-02-04T04:12:55.964Z,55.08
2023-02-04T04:14:57.603Z,55.20
2023-02-04T04:17:00.835Z,55.21
2023-02-04T04:19:02.342Z,55.02
2023-02-04T04:21:03.916Z,55.10
2023-02-04T04:23:05.391Z,55.32
2023-02-04T04:25:07.805Z,54.85
2023-02-04T04:27:12.293Z,55.02
2023-02-04T04:29:13.858Z,55.29
2023-02-04T04:31:15.636Z,55.03
2023-02-04T04:33:17.226Z,54.99
2023-02-04T04:35:18.890Z,54.77
2023-02-04T04:37:20.466Z,54.96
2023-02-04T04:39:24.245Z,54.99
2023-02-04T04:41:28.509Z,55.38
2023-02-04T04:43:30.110Z,55.27
2023-02-04T04:45:31.694Z,55.27
2023-02-04T04:47:33.186Z,55.23
2023-02-04T04:49:34.698Z,55.44
2023-02-04T04:51:36.689Z,55.46
2023-02-04T04:53:38.172Z,55.65
2023-02-04T04:55:40.538Z,55.38
2023-02-04T04:57:42.064Z,55.34
2023-02-04T04:59:43.593Z,55.42
2023-02-04T05:01:45.151Z,55.44
2023-02-04T05:03:46.670Z,55.51
2023-02-04T05:05:48.427Z,55.52
2023-02-04T05:07:50.087Z,55.26
2023-02-04T05:09:51.681Z,55.31
2023-02-04T05:11:53.282Z,55.59
2023-02-04T05:13:56.107Z,55.35
2023-02-04T05:15:58.167Z,55.37
2023-02-04T05:18:00.132Z,56.00
2023-02-04T05:20:03.683Z,55.65
2023-02-04T05:22:05.192Z,55.68
2023-02-04T05:24:06.700Z,55.55
2023-02-04T05:26:13.636Z,55.90
2023-02-04T05:28:16.891Z,55.64
2023-02-04T05:30:18.739Z,56.02
2023-02-04T05:32:20.411Z,55.56
2023-02-04T05:34:22.037Z,55.70
2023-02-04T05:36:23.669Z,55.99
2023-02-04T05:38:25.117Z,55.51
2023-02-04T05:40:29.662Z,55.60
2023-02-04T05:42:31.427Z,55.71
2023-02-04T05:44:33.075Z,55.56
2023-02-04T05:46:41.237Z,55.80
2023-02-04T05:48:42.713Z,55.95
2023-02-04T05:50:44.475Z,55.95
2023-02-04T05:52:46.259Z,56.01
2023-02-04T05:54:47.995Z,56.02
2023-02-04T05:56:52.177Z,55.58
2023-02-04T05:58:54.973Z,55.84
2023-02-04T06:00:56.623Z,55.44
2023-02-04T06:02:58.208Z,55.36
2023-02-04T06:05:00.264Z,55.91
2023-02-04T06:07:03.356Z,55.87
2023-02-04T06:09:04.921Z,55.94
2023-02-04T06:11:06.818Z,55.48
2023-02-04T06:13:08.445Z,55.36
2023-02-04T06:15:10.820Z,55.40
2023-02-04T06:17:15.313Z,55.75
2023-02-04T06:19:16.792Z,55.39
2023-02-04T06:21:18.768Z,55.22
2023-02-04T06:23:20.292Z,55.82
2023-02-04T06:25:23.168Z,55.37
2023-02-04T06:29:40.289Z,55.30
2023-02-04T06:31:42.037Z,55.36
2023-02-04T06:33:43.785Z,55.33
2023-02-04T06:35:45.395Z,55.33
2023-02-04T06:37:47.410Z,55.21
2023-02-04T06:39:55.341Z,55.00
2023-02-04T06:42:00.685Z,55.06
2023-02-04T06:44:02.154Z,55.48
2023-02-04T06:46:05.398Z,55.38
2023-02-04T06:48:07.177Z,55.28
2023-02-04T06:50:10.946Z,55.04
2023-02-04T06:52:12.628Z,54.99
2023-02-04T06:54:14.178Z,55.08
2023-02-04T06:56:15.865Z,55.27
2023-02-04T06:58:20.742Z,55.39
2023-02-04T07:00:22.796Z,54.94
2023-02-04T07:02:26.559Z,54.95
2023-02-04T07:04:28.075Z,55.11
2023-02-04T07:06:29.725Z,55.29
2023-02-04T07:08:31.497Z,54.92
2023-02-04T07:10:35.694Z,54.96
2023-02-04T07:12:37.374Z,54.50
2023-02-04T07:14:39.159Z,54.82
2023-02-04T07:16:40.755Z,55.19
2023-02-04T07:18:42.309Z,54.75
2023-02-04T07:20:44.121Z,55.12
2023-02-04T07:22:45.775Z,55.15
2023-02-04T07:24:47.565Z,54.87
2023-02-04T07:26:52.198Z,55.01
2023-02-04T07:28:53.826Z,54.87
2023-02-04T07:30:55.680Z,54.93
2023-02-04T07:32:57.330Z,55.12
2023-02-04T07:35:00.031Z,54.95
2023-02-04T07:37:01.974Z,55.08
2023-02-04T07:39:04.276Z,55.25
2023-02-04T07:41:05.868Z,55.24
2023-02-04T07:43:07.818Z,55.72
2023-02-04T07:45:19.145Z,55.51
2023-02-04T07:47:23.532Z,55.52
2023-02-04T07:49:25.004Z,55.71
2023-02-04T07:51:27.929Z,55.70
2023-02-04T07:53:29.791Z,55.76
2023-02-04T07:55:31.503Z,55.82
2023-02-04T07:57:33.386Z,55.64
2023-02-04T07:59:34.913Z,55.84
2023-02-04T08:01:36.591Z,55.51
2023-02-04T08:03:39.912Z,55.78
2023-02-04T08:05:42.501Z,55.87
2023-02-04T08:07:44.348Z,55.98
2023-02-04T08:09:48.973Z,55.81
2023-02-04T08:11:50.509Z,55.65
2023-02-04T08:13:52.246Z,55.78
2023-02-04T08:15:53.948Z,55.70
2023-02-04T08:17:55.554Z,56.16
2023-02-04T08:19:57.210Z,55.92
2023-02-04T08:21:58.895Z,55.99
2023-02-04T08:24:00.517Z,56.28
2023-02-04T08:26:02.219Z,56.44
2023-02-04T08:28:04.887Z,56.31
2023-02-04T08:30:10.334Z,56.00
2023-02-04T08:32:13.344Z,56.29
2023-02-04T08:34:16.153Z,56.13
2023-02-04T08:36:20.016Z,56.41
2023-02-04T08:38:21.774Z,55.95
2023-02-04T08:40:23.639Z,55.99
2023-02-04T08:42:25.560Z,56.27
2023-02-04T08:44:27.291Z,55.97
2023-02-04T08:46:29.036Z,55.65
2023-02-04T08:48:33.323Z,55.60
2023-02-04T08:50:36.233Z,56.05
2023-02-04T08:52:38.983Z,55.60
2023-02-04T08:54:40.434Z,55.81
2023-02-04T08:56:42.229Z,55.49
2023-02-04T08:58:47.530Z,55.43
2023-02-04T09:00:49.193Z,55.67
2023-02-04T09:02:51.878Z,55.65
2023-02-04T09:04:53.340Z,55.95
2023-02-04T09:07:03.256Z,55.90
2023-02-04T09:09:04.905Z,55.82
2023-02-04T09:11:07.726Z,55.95
2023-02-04T09:13:11.694Z,55.56
2023-02-04T09:15:16.814Z,55.80
2023-02-04T09:17:19.200Z,55.51
2023-02-04T09:19:25.997Z,55.55
2023-02-04T09:21:28.196Z,55.33
2023-02-04T09:23:30.197Z,55.60
2023-02-04T09:25:32.458Z,55.62
2023-02-04T09:27:34.037Z,55.37
2023-02-04T09:29:35.543Z,55.28
2023-02-04T09:31:37.272Z,55.16
2023-02-04T09:33:39.187Z,55.34
2023-02-04T09:35:40.933Z,54.58
2023-02-04T09:37:42.581Z,54.59
2023-02-04T09:39:44.468Z,55.18
2023-02-04T09:41:46.203Z,55.04
2023-02-04T09:43:49.183Z,55.15
2023-02-04T09:45:51.672Z,54.93
2023-02-04T09:47:54.141Z,54.72
2023-02-04T09:49:55.819Z,55.00
2023-02-04T09:51:58.904Z,54.73
2023-02-04T09:54:18.272Z,54.23
2023-02-04T09:56:20.481Z,54.15
2023-02-04T09:58:29.108Z,53.54
2023-02-04T10:00:31.524Z,54.36
2023-02-04T10:02:35.013Z,54.14
2023-02-04T10:04:36.990Z,54.02
2023-02-04T10:06:39.498Z,53.65
2023-02-04T10:08:42.474Z,54.18
2023-02-04T10:10:46.628Z,53.77
2023-02-04T10:12:50.090Z,54.03
2023-02-04T10:14:51.746Z,53.88
2023-02-04T10:17:00.006Z,55.10
2023-02-04T10:19:08.230Z,54.04
2023-02-04T10:21:26.647Z,55.13
2023-02-04T10:23:28.172Z,55.11
2023-02-04T10:25:29.779Z,54.10
2023-02-04T10:27:31.339Z,55.20
2023-02-04T10:29:33.094Z,55.47
2023-02-04T10:31:39.489Z,55.02
2023-02-04T10:33:41.291Z,55.27
2023-02-04T10:35:48.097Z,54.90
2023-02-04T10:38:04.595Z,54.89
2023-02-04T10:40:40.313Z,54.32
2023-02-04T10:42:49.502Z,54.83
2023-02-04T10:44:51.672Z,54.53
2023-02-04T10:47:05.155Z,54.55
2023-02-04T10:49:23.796Z,54.31
2023-02-04T10:51:25.582Z,54.06
2023-02-04T10:53:45.926Z,54.05
2023-02-04T10:55:49.326Z,53.61
2023-02-04T10:57:52.876Z,53.55
2023-02-04T11:00:03.078Z,53.22
2023-02-04T11:02:39.005Z,52.81
2023-02-04T11:04:40.552Z,53.02
2023-02-04T11:06:43.621Z,53.04
2023-02-04T11:08:50.123Z,52.88
2023-02-04T11:10:57.833Z,52.48
2023-02-04T11:13:01.072Z,52.40
2023-02-04T11:15:06.674Z,52.85
2023-02-04T11:17:20.224Z,51.44
2023-02-04T11:19:39.911Z,52.20
2023-02-04T11:21:45.346Z,52.31
2023-02-04T11:23:48.607Z,52.21
2023-02-04T11:26:31.627Z,51.61
2023-02-04T11:28:59.575Z,51.82
2023-02-04T11:31:03.709Z,52.03
2023-02-04T11:33:21.582Z,52.17
2023-02-04T11:35:29.341Z,51.90
2023-02-04T11:37:38.136Z,51.47
2023-02-04T11:39:47.409Z,51.79
2023-02-04T11:41:49.074Z,51.74
2023-02-04T11:43:52.036Z,51.79
2023-02-04T11:46:15.977Z,50.63
2023-02-04T11:48:20.216Z,50.99
2023-02-04T11:50:26.232Z,51.06
2023-02-04T11:52:27.868Z,51.55
2023-02-04T11:54:29.364Z,50.89
2023-02-04T11:56:33.934Z,51.00
2023-02-04T11:58:42.190Z,51.10
2023-02-04T12:00:44.688Z,51.61
2023-02-04T12:02:54.922Z,51.25
2023-02-04T12:05:08.409Z,50.64
2023-02-04T12:07:12.774Z,51.07
2023-02-04T12:09:17.123Z,50.98
2023-02-04T12:11:27.215Z,50.85
2023-02-04T12:13:30.937Z,50.99
2023-02-04T12:15:37.410Z,51.34
2023-02-04T12:17:39.212Z,51.45
2023-02-04T12:19:40.974Z,51.18
2023-02-04T12:21:43.368Z,51.40
2023-02-04T12:23:45.296Z,51.28
2023-02-04T12:25:50.100Z,51.20
2023-02-04T12:27:53.183Z,51.46
2023-02-04T12:29:57.474Z,51.09
2023-02-04T12:31:59.061Z,51.65
2023-02-04T12:34:00.807Z,51.60
2023-02-04T12:36:02.385Z,51.31
2023-02-04T12:38:05.080Z,51.71
2023-02-04T12:40:08.076Z,51.47
2023-02-04T12:42:09.858Z,51.68
2023-02-04T12:44:11.798Z,52.03
2023-02-04T12:46:13.420Z,51.91
2023-02-04T12:48:15.815Z,52.08
2023-02-04T12:50:26.200Z,51.76
2023-02-04T12:52:29.203Z,51.98
2023-02-04T12:54:30.901Z,51.88
2023-02-04T12:56:32.466Z,51.56
2023-02-04T12:58:34.028Z,51.49
2023-02-04T13:00:35.605Z,51.33
2023-02-04T13:02:37.394Z,51.21
2023-02-04T13:04:41.209Z,51.63
2023-02-04T13:06:42.781Z,50.91
2023-02-04T13:08:44.347Z,50.42
2023-02-04T13:10:50.406Z,50.55
2023-02-04T13:12:51.930Z,51.10
2023-02-04T13:14:53.670Z,50.81
2023-02-04T13:16:55.443Z,50.77
2023-02-04T13:18:57.587Z,50.54
2023-02-04T13:20:59.372Z,50.38
2023-02-04T13:23:01.039Z,50.65
2023-02-04T13:25:04.073Z,50.62
2023-02-04T13:27:05.878Z,50.86
2023-02-04T13:29:07.598Z,51.03
2023-02-04T13:31:13.356Z,50.98
2023-02-04T13:33:15.091Z,51.07
2023-02-04T13:35:16.774Z,50.52
2023-02-04T13:37:18.251Z,50.75
2023-02-04T13:39:20.002Z,50.58
2023-02-04T13:41:21.740Z,50.70
2023-02-04T13:43:23.748Z,50.84
2023-02-04T13:45:25.495Z,50.63
2023-02-04T13:47:26.964Z,50.27
2023-02-04T13:49:42.012Z,50.68
2023-02-04T13:51:45.756Z,50.46
2023-02-04T13:53:47.677Z,50.84
2023-02-04T13:55:49.262Z,51.00
2023-02-04T13:57:50.763Z,50.81
2023-02-04T13:59:52.446Z,50.58
2023-02-04T14:01:54.006Z,50.63
2023-02-04T14:03:57.088Z,50.89
2023-02-04T14:06:05.662Z,50.80
2023-02-04T14:08:07.102Z,50.65
2023-02-04T14:10:09.163Z,51.02
2023-02-04T14:12:10.879Z,50.31
2023-02-04T14:14:12.446Z,50.90
2023-02-04T14:16:14.017Z,50.34
2023-02-04T14:18:18.735Z,50.55
2023-02-04T14:20:20.369Z,50.79
2023-02-04T14:22:24.687Z,50.76
2023-02-04T14:24:26.413Z,50.81
2023-02-04T14:26:28.286Z,51.01
2023-02-04T14:28:29.901Z,50.58
2023-02-04T14:30:32.792Z,50.38
2023-02-04T14:32:34.658Z,50.75
2023-02-04T14:34:36.486Z,50.66
2023-02-04T14:36:38.194Z,50.41
2023-02-04T14:38:39.850Z,50.29
2023-02-04T14:40:44.324Z,50.80
2023-02-04T14:42:50.063Z,50.42
2023-02-04T14:44:51.741Z,50.73
2023-02-04T14:46:53.373Z,50.50
2023-02-04T14:48:55.067Z,50.41
2023-02-04T14:50:56.758Z,50.13
2023-02-04T14:52:58.504Z,50.36
2023-02-04T14:55:00.342Z,50.39
2023-02-04T14:57:04.582Z,50.59
2023-02-04T14:59:06.256Z,50.04
2023-02-04T15:01:08.218Z,50.47
2023-02-04T15:03:09.866Z,50.53
2023-02-04T15:05:15.238Z,50.14
2023-02-04T15:07:16.796Z,50.44
2023-02-04T15:09:19.300Z,50.14
2023-02-04T15:11:20.991Z,50.16
2023-02-04T15:13:24.897Z,50.00
2023-02-04T15:15:26.613Z,49.89
2023-02-04T15:17:28.254Z,49.46
2023-02-04T15:19:33.296Z,49.49
2023-02-04T15:21:35.223Z,49.69
2023-02-04T15:23:36.995Z,49.37
2023-02-04T15:25:40.142Z,49.36
2023-02-04T15:27:41.917Z,49.68
2023-02-04T15:29:43.459Z,49.59
2023-02-04T15:31:45.260Z,49.60
2023-02-04T15:33:49.319Z,49.34
2023-02-04T15:35:52.162Z,49.40
2023-02-04T15:37:53.725Z,49.69
2023-02-04T15:39:57.032Z,49.53
2023-02-04T15:41:58.936Z,49.46
2023-02-04T15:44:00.543Z,49.41
2023-02-04T15:46:02.202Z,49.61
2023-02-04T15:48:03.831Z,49.38
2023-02-04T15:50:08.648Z,49.84
2023-02-04T15:52:19.456Z,49.64
2023-02-04T15:54:28.016Z,49.61
2023-02-04T15:56:29.778Z,49.81
2023-02-04T15:58:34.114Z,49.54
2023-02-04T16:00:36.149Z,49.66
2023-02-04T16:02:37.874Z,49.67
2023-02-04T16:04:41.448Z,49.96
2023-02-04T16:06:53.408Z,49.85
2023-02-04T16:08:59.088Z,49.73
2023-02-04T16:11:02.020Z,49.90
2023-02-04T16:13:03.506Z,49.74
2023-02-04T16:15:05.672Z,49.75
2023-02-04T16:17:08.340Z,49.68
2023-02-04T16:19:09.883Z,49.88
2023-02-04T16:21:11.737Z,50.10
2023-02-04T16:23:13.120Z,49.75
2023-02-04T16:25:14.933Z,49.80
2023-02-04T16:27:17.272Z,49.64
2023-02-04T16:29:21.571Z,49.97
2023-02-04T16:31:23.375Z,49.75
2023-02-04T16:33:26.793Z,49.68
2023-02-04T16:35:28.615Z,49.67
2023-02-04T16:37:31.120Z,49.79
2023-02-04T16:39:33.060Z,49.79
2023-02-04T16:41:34.644Z,49.75
2023-02-04T16:43:37.649Z,49.79
2023-02-04T16:45:40.816Z,50.02
2023-02-04T16:47:42.331Z,49.96
2023-02-04T16:49:48.189Z,49.60
2023-02-04T16:51:49.814Z,49.62
2023-02-04T16:53:51.402Z,49.93
2023-02-04T16:55:53.071Z,49.60
2023-02-04T16:57:54.616Z,49.70
2023-02-04T16:59:56.750Z,49.59
2023-02-04T17:02:00.836Z,49.83
2023-02-04T17:04:03.157Z,49.78
2023-02-04T17:06:04.965Z,49.50
2023-02-04T17:08:07.326Z,49.43
2023-02-04T17:10:09.438Z,49.53
2023-02-04T17:12:11.231Z,49.73
2023-02-04T17:14:15.851Z,49.48
2023-02-04T17:16:19.723Z,49.76
2023-02-04T17:18:21.337Z,49.51
2023-02-04T17:20:24.513Z,49.69
2023-02-04T17:22:26.900Z,49.78
2023-02-04T17:24:29.249Z,49.58
2023-02-04T17:26:36.946Z,49.62
2023-02-04T17:28:38.656Z,49.66
2023-02-04T17:30:40.379Z,49.79
2023-02-04T17:32:42.598Z,49.79
2023-02-04T17:34:45.320Z,49.57
2023-02-04T17:36:47.044Z,49.80
2023-02-04T17:38:48.565Z,49.88
2023-02-04T17:40:50.369Z,49.70
2023-02-04T17:42:51.988Z,49.55
2023-02-04T17:44:54.336Z,49.57
2023-02-04T17:46:57.371Z,49.78
2023-02-04T17:48:59.205Z,49.69
2023-02-04T17:51:00.908Z,49.53
2023-02-04T17:53:04.140Z,49.60
2023-02-04T17:55:27.598Z,49.63
2023-02-04T17:57:29.239Z,49.80
2023-02-04T17:59:31.717Z,49.58
2023-02-04T18:01:33.937Z,49.67
2023-02-04T18:03:36.180Z,49.70
2023-02-04T18:05:44.657Z,49.66
2023-02-04T18:07:56.282Z,49.51
2023-02-04T18:10:17.903Z,49.58
2023-02-04T18:12:20.187Z,49.69
2023-02-04T18:14:30.339Z,49.67
2023-02-04T18:16:34.481Z,49.55
2023-02-04T18:18:38.387Z,49.98
2023-02-04T18:20:40.345Z,49.96
2023-02-04T18:22:41.972Z,49.68
2023-02-04T18:24:47.641Z,49.85
2023-02-04T18:26:52.568Z,49.75
2023-02-04T18:28:54.218Z,49.96
2023-02-04T18:31:00.431Z,49.61
2023-02-04T18:33:06.901Z,49.84
2023-02-04T18:35:31.679Z,49.87
2023-02-04T18:37:46.762Z,49.47
2023-02-04T18:39:48.570Z,49.80
2023-02-04T18:41:51.991Z,49.75
2023-02-04T18:44:02.267Z,49.56
2023-02-04T18:46:20.277Z,49.78
2023-02-04T18:48:22.739Z,50.07
2023-02-04T18:50:29.846Z,50.06
2023-02-04T18:52:37.583Z,49.71
2023-02-04T18:54:40.270Z,50.22
2023-02-04T18:56:42.825Z,49.90
2023-02-04T18:58:49.288Z,49.88
2023-02-04T19:01:00.342Z,50.09
2023-02-04T19:03:37.249Z,50.15
2023-02-04T19:05:48.995Z,49.94
2023-02-04T19:07:52.961Z,50.14
2023-02-04T19:09:59.001Z,50.03
2023-02-04T19:12:19.657Z,50.08
2023-02-04T19:14:38.966Z,49.92
2023-02-04T19:16:42.216Z,50.30
2023-02-04T19:18:44.335Z,50.08
2023-02-04T19:20:45.981Z,50.30
2023-02-04T19:22:51.891Z,50.25
2023-02-04T19:25:02.159Z,50.25
2023-02-04T19:27:29.632Z,50.11
2023-02-04T19:29:37.953Z,49.91
2023-02-04T19:31:42.905Z,50.02
2023-02-04T19:33:47.999Z,50.24
2023-02-04T19:35:50.148Z,50.21
2023-02-04T19:38:30.387Z,49.69
2023-02-04T19:40:34.965Z,49.70
2023-02-04T19:42:37.852Z,50.16
2023-02-04T19:44:43.666Z,49.60
2023-02-04T19:46:45.429Z,50.09
2023-02-04T19:48:47.397Z,49.95
2023-02-04T19:50:54.239Z,50.03
2023-02-04T19:53:09.510Z,49.63
2023-02-04T19:55:17.221Z,49.85
2023-02-04T19:57:25.511Z,50.23
2023-02-04T19:59:36.305Z,50.40
2023-02-04T20:01:41.067Z,49.89
2023-02-04T20:03:49.445Z,49.89
2023-02-04T20:05:51.601Z,49.91
2023-02-04T20:07:53.091Z,50.00
2023-02-04T20:10:00.806Z,50.25
2023-02-04T20:12:11.983Z,49.83
2023-02-04T20:14:16.392Z,49.96
2023-02-04T20:16:41.126Z,49.97
2023-02-04T20:18:45.210Z,50.45
2023-02-04T20:20:47.218Z,50.07
2023-02-04T20:22:53.505Z,49.74
2023-02-04T20:24:58.895Z,49.98
2023-02-04T20:27:02.413Z,50.05
2023-02-04T20:29:13.557Z,50.07
2023-02-04T20:31:35.845Z,49.76
2023-02-04T20:34:12.978Z,49.62
2023-02-04T20:36:26.942Z,49.85
2023-02-04T20:38:32.711Z,50.30
2023-02-04T20:40:42.172Z,49.96
2023-02-04T20:42:46.184Z,50.55
2023-02-04T20:44:49.194Z,49.86
2023-02-04T20:46:50.897Z,50.20
2023-02-04T20:48:52.560Z,49.70
2023-02-04T20:50:55.876Z,50.09
2023-02-04T20:53:06.942Z,50.14
2023-02-04T20:55:27.910Z,49.91
2023-02-04T20:57:41.664Z,50.09
2023-02-04T20:59:44.891Z,50.25
2023-02-04T21:01:49.765Z,50.21
2023-02-04T21:03:51.862Z,49.89
2023-02-04T21:05:54.672Z,49.91
2023-02-04T21:07:58.036Z,50.62
2023-02-04T21:10:04.285Z,49.83
2023-02-04T21:12:07.086Z,49.97
2023-02-04T21:14:09.291Z,50.14
2023-02-04T21:16:12.001Z,50.39
2023-02-04T21:18:13.876Z,49.96
2023-02-04T21:20:15.701Z,50.24
2023-02-04T21:22:17.520Z,49.59
2023-02-04T21:24:21.193Z,50.23
2023-02-04T21:26:22.746Z,50.29
2023-02-04T21:28:24.353Z,49.95
2023-02-04T21:30:30.097Z,50.12
2023-02-04T21:32:31.982Z,50.12
2023-02-04T21:34:33.810Z,50.29
2023-02-04T21:36:35.369Z,50.34
2023-02-04T21:38:36.988Z,50.40
2023-02-04T21:40:39.255Z,50.11
2023-02-04T21:42:41.035Z,50.10
2023-02-04T21:44:42.703Z,49.88
2023-02-04T21:46:44.475Z,49.88
2023-02-04T21:48:46.526Z,50.09
2023-02-04T21:50:48.124Z,50.54
2023-02-04T21:52:49.962Z,49.84
2023-02-04T21:54:51.477Z,49.98
2023-02-04T21:56:52.983Z,50.39
2023-02-04T21:58:54.465Z,50.09
2023-02-04T22:00:56.063Z,50.27
2023-02-04T22:02:58.138Z,50.10
2023-02-04T22:05:02.516Z,49.99
2023-02-04T22:07:04.100Z,50.50
2023-02-04T22:09:05.981Z,50.08
2023-02-04T22:11:07.818Z,50.15
2023-02-04T22:13:09.647Z,50.43
2023-02-04T22:15:17.837Z,50.60
2023-02-04T22:17:19.727Z,50.35
2023-02-04T22:19:21.489Z,49.94
2023-02-04T22:21:23.477Z,50.11
2023-02-04T22:23:28.174Z,50.49
2023-02-04T22:25:29.868Z,50.21
2023-02-04T22:27:31.400Z,50.20
2023-02-04T22:29:33.691Z,50.04
2023-02-04T22:31:35.577Z,50.31
2023-02-04T22:33:37.355Z,50.27
2023-02-04T22:35:41.758Z,50.33
2023-02-04T22:37:46.639Z,50.58
2023-02-04T22:39:48.254Z,50.38
2023-02-04T22:41:50.139Z,50.07
2023-02-04T22:43:51.952Z,50.51
2023-02-04T22:45:55.722Z,50.05
2023-02-04T22:47:59.819Z,50.33
2023-02-04T22:50:01.483Z,50.64
2023-02-04T22:52:03.885Z,50.45
2023-02-04T22:54:05.492Z,50.30
2023-02-04T22:56:07.259Z,50.12
2023-02-04T22:58:09.028Z,50.45
2023-02-04T23:00:11.532Z,50.84
2023-02-04T23:02:16.109Z,50.22
2023-02-04T23:04:17.640Z,50.05
2023-02-04T23:06:27.899Z,50.45
2023-02-04T23:08:29.444Z,50.61
2023-02-04T23:10:31.352Z,50.35
2023-02-04T23:12:35.804Z,50.23
2023-02-04T23:14:40.288Z,50.66
2023-02-04T23:16:43.058Z,50.50
2023-02-04T23:18:44.855Z,50.53
2023-02-04T23:20:46.662Z,50.77
2023-02-04T23:22:48.193Z,50.30
2023-02-04T23:24:49.922Z,50.34
2023-02-04T23:26:51.626Z,50.50
2023-02-04T23:28:58.070Z,50.32
2023-02-04T23:30:59.870Z,50.69
2023-02-04T23:33:01.443Z,50.50
2023-02-04T23:35:06.556Z,50.35
2023-02-04T23:37:08.004Z,50.30
2023-02-04T23:39:09.646Z,50.46
2023-02-04T23:41:11.407Z,50.42
2023-02-04T23:43:13.021Z,50.26
2023-02-04T23:45:14.649Z,50.67
2023-02-04T23:47:16.159Z,50.49
2023-02-04T23:49:17.737Z,50.41
2023-02-04T23:51:19.440Z,50.84
2023-02-04T23:53:20.981Z,50.59
2023-02-04T23:55:22.942Z,50.12
2023-02-04T23:57:24.359Z,50.58
2023-02-04T23:59:28.344Z,50.64
